createdAt,value
2018-11-21T00:00:07.625Z,90.08
2018-11-21T00:01:07.865Z,90.10
2018-11-21T00:02:08.420Z,89.87
2018-11-21T00:03:08.518Z,90.08
2018-11-21T00:04:08.592Z,90.03
2018-11-21T00:05:08.689Z,89.95
2018-11-21T00:06:08.765Z,89.91
2018-11-21T00:07:08.858Z,90.13
2018-11-21T00:08:08.645Z,89.87
2018-11-21T00:09:09.220Z,90.15
2018-11-21T00:10:09.154Z,89.82
2018-11-21T00:11:09.476Z,89.89
2018-11-21T00:12:09.737Z,89.70
2018-11-21T00:13:10.276Z,89.82
2018-11-21T00:14:10.114Z,89.54
2018-11-21T00:15:10.387Z,89.58
2018-11-21T00:16:11.051Z,89.76
2018-11-21T00:17:11.317Z,89.74
2018-11-21T00:18:11.567Z,89.77
2018-11-21T00:19:11.980Z,89.55
2018-11-21T00:20:12.250Z,89.38
2018-11-21T00:21:12.709Z,89.34
2018-11-21T00:22:12.981Z,89.22
2018-11-21T00:23:13.241Z,89.17
2018-11-21T00:24:13.561Z,89.08
2018-11-21T00:25:13.826Z,88.99
2018-11-21T00:26:14.092Z,89.17
2018-11-21T00:27:14.350Z,88.92
2018-11-21T00:28:14.629Z,88.89
2018-11-21T00:29:14.942Z,88.89
2018-11-21T00:30:15.540Z,88.89
2018-11-21T00:31:15.330Z,88.91
2018-11-21T00:32:15.631Z,88.81
2018-11-21T00:33:15.874Z,88.75
2018-11-21T00:34:16.190Z,88.81
2018-11-21T00:35:16.553Z,88.91
2018-11-21T00:36:16.832Z,88.87
2018-11-21T00:37:17.110Z,88.81
2018-11-21T00:38:17.184Z,88.82
2018-11-21T00:39:17.464Z,88.85
2018-11-21T00:40:17.809Z,89.05
2018-11-21T00:41:18.269Z,88.85
2018-11-21T00:42:18.898Z,88.87
2018-11-21T00:43:18.987Z,88.89
2018-11-21T00:44:19.097Z,89.10
2018-11-21T00:45:19.206Z,89.17
2018-11-21T00:46:19.338Z,89.00
2018-11-21T00:47:19.456Z,89.02
2018-11-21T00:48:19.545Z,88.90
2018-11-21T00:49:19.683Z,88.91
2018-11-21T00:50:19.863Z,88.92
2018-11-21T00:51:20.024Z,88.92
2018-11-21T00:52:20.182Z,88.76
2018-11-21T00:53:20.313Z,88.72
2018-11-21T00:54:20.467Z,88.58
2018-11-21T00:55:20.622Z,88.59
2018-11-21T00:56:20.777Z,88.73
2018-11-21T00:57:20.923Z,88.79
2018-11-21T00:58:20.982Z,88.72
2018-11-21T00:59:21.110Z,88.72
2018-11-21T01:00:21.258Z,88.61
2018-11-21T01:01:21.438Z,88.51
2018-11-21T01:02:21.516Z,88.65
2018-11-21T01:03:21.663Z,88.70
2018-11-21T01:04:21.827Z,88.84
2018-11-21T01:05:21.916Z,89.20
2018-11-21T01:06:22.019Z,89.00
2018-11-21T01:07:22.116Z,88.89
2018-11-21T01:08:22.538Z,88.80
2018-11-21T01:09:22.620Z,88.92
2018-11-21T01:10:22.683Z,88.77
2018-11-21T01:11:22.750Z,88.80
2018-11-21T01:12:22.822Z,88.79
2018-11-21T01:13:22.911Z,88.83
2018-11-21T01:14:23.074Z,88.83
2018-11-21T01:15:23.213Z,88.66
2018-11-21T01:16:23.322Z,88.74
2018-11-21T01:17:23.407Z,88.93
2018-11-21T01:18:23.507Z,88.86
2018-11-21T01:19:23.577Z,88.79
2018-11-21T01:20:23.667Z,88.69
2018-11-21T01:21:23.741Z,88.79
2018-11-21T01:22:23.801Z,88.88
2018-11-21T01:24:23.863Z,88.74
2018-11-21T01:25:23.945Z,88.73
2018-11-21T01:26:23.940Z,88.63
2018-11-21T01:27:24.045Z,88.72
2018-11-21T01:28:24.128Z,88.83
2018-11-21T01:29:24.132Z,88.72
2018-11-21T01:30:23.969Z,88.85
2018-11-21T01:31:24.250Z,89.01
2018-11-21T01:32:24.529Z,88.84
2018-11-21T01:33:24.806Z,88.89
2018-11-21T01:34:25.108Z,89.04
2018-11-21T01:35:25.416Z,89.28
2018-11-21T01:36:25.687Z,89.29
2018-11-21T01:37:26.157Z,89.29
2018-11-21T01:38:26.485Z,89.48
2018-11-21T01:39:26.766Z,89.32
2018-11-21T01:40:27.199Z,89.19
2018-11-21T01:41:27.465Z,89.25
2018-11-21T01:42:27.813Z,89.24
2018-11-21T01:43:28.092Z,89.24
2018-11-21T01:44:28.499Z,89.42
2018-11-21T01:45:28.783Z,89.48
2018-11-21T01:46:29.138Z,89.59
2018-11-21T01:47:29.419Z,89.70
2018-11-21T01:48:29.714Z,89.54
2018-11-21T01:49:30.022Z,89.71
2018-11-21T01:50:30.295Z,89.81
2018-11-21T01:51:30.593Z,89.78
2018-11-21T01:52:30.861Z,89.85
2018-11-21T01:53:31.127Z,89.84
2018-11-21T01:54:31.412Z,89.86
2018-11-21T01:55:31.673Z,89.80
2018-11-21T01:56:32.008Z,89.58
2018-11-21T01:57:32.311Z,89.92
2018-11-21T01:58:32.606Z,90.32
2018-11-21T01:59:32.897Z,90.26
2018-11-21T02:00:33.490Z,90.45
2018-11-21T02:01:33.511Z,90.46
2018-11-21T02:02:33.612Z,90.49
2018-11-21T02:03:33.781Z,90.79
2018-11-21T02:04:34.092Z,90.76
2018-11-21T02:05:34.211Z,90.83
2018-11-21T02:06:34.344Z,90.89
2018-11-21T02:07:34.544Z,91.02
2018-11-21T02:08:34.686Z,91.17
2018-11-21T02:09:34.843Z,91.07
2018-11-21T02:10:35.004Z,91.03
2018-11-21T02:11:35.189Z,91.20
2018-11-21T02:12:35.369Z,91.21
2018-11-21T02:13:35.509Z,91.83
2018-11-21T02:14:35.657Z,91.73
2018-11-21T02:15:35.840Z,91.61
2018-11-21T02:16:36.026Z,91.49
2018-11-21T02:17:36.135Z,91.84
2018-11-21T02:18:36.200Z,91.87
2018-11-21T02:19:36.307Z,91.91
2018-11-21T02:20:36.407Z,91.77
2018-11-21T02:21:36.454Z,91.77
2018-11-21T02:22:36.519Z,91.68
2018-11-21T02:23:36.771Z,91.67
2018-11-21T02:24:37.109Z,91.69
2018-11-21T02:25:37.203Z,91.78
2018-11-21T02:26:37.347Z,91.66
2018-11-21T02:27:37.457Z,91.77
2018-11-21T02:28:37.553Z,91.65
2018-11-21T02:29:37.641Z,91.63
2018-11-21T02:31:37.730Z,91.28
2018-11-21T02:32:37.822Z,91.08
2018-11-21T02:34:37.898Z,91.12
2018-11-21T02:35:37.982Z,91.10
2018-11-21T02:36:38.075Z,91.53
2018-11-21T02:37:38.175Z,91.22
2018-11-21T02:38:38.241Z,91.13
2018-11-21T02:39:38.312Z,91.20
2018-11-21T02:40:38.497Z,91.23
2018-11-21T02:41:38.562Z,91.39
2018-11-21T02:42:38.664Z,91.44
2018-11-21T02:43:38.966Z,91.23
2018-11-21T02:44:39.060Z,91.61
2018-11-21T02:45:39.167Z,91.53
2018-11-21T02:46:39.250Z,91.86
2018-11-21T02:47:39.224Z,92.12
2018-11-21T02:48:39.519Z,92.27
2018-11-21T02:49:39.791Z,92.13
2018-11-21T02:50:40.123Z,92.37
2018-11-21T02:51:40.418Z,92.59
2018-11-21T02:52:40.685Z,92.52
2018-11-21T02:54:41.104Z,92.77
2018-11-21T02:55:41.408Z,93.03
2018-11-21T02:56:41.683Z,93.28
2018-11-21T02:57:41.855Z,93.29
2018-11-21T02:58:42.120Z,93.13
2018-11-21T02:59:42.446Z,93.15
2018-11-21T03:00:42.483Z,92.92
2018-11-21T03:01:42.700Z,92.97
2018-11-21T03:02:42.975Z,93.34
2018-11-21T03:03:43.238Z,93.21
2018-11-21T03:04:43.498Z,93.35
2018-11-21T03:05:43.779Z,93.01
2018-11-21T03:06:44.055Z,93.14
2018-11-21T03:07:44.392Z,93.13
2018-11-21T03:08:44.744Z,93.46
2018-11-21T03:09:45.039Z,93.82
2018-11-21T03:10:45.359Z,93.87
2018-11-21T03:11:45.623Z,94.02
2018-11-21T03:12:46.091Z,94.20
2018-11-21T03:13:46.847Z,94.25
2018-11-21T03:14:46.643Z,94.36
2018-11-21T03:15:46.942Z,94.95
2018-11-21T03:16:47.279Z,94.46
2018-11-21T03:17:47.590Z,94.44
2018-11-21T03:18:47.895Z,95.01
2018-11-21T03:19:48.326Z,94.45
2018-11-21T03:20:48.971Z,94.47
2018-11-21T03:21:49.092Z,94.68
2018-11-21T03:22:49.219Z,94.69
2018-11-21T03:23:49.329Z,94.71
2018-11-21T03:24:49.450Z,94.94
2018-11-21T03:25:49.548Z,95.01
2018-11-21T03:26:49.703Z,94.97
2018-11-21T03:27:50.006Z,94.89
2018-11-21T03:28:50.121Z,94.76
2018-11-21T03:29:50.393Z,94.71
2018-11-21T03:30:50.578Z,94.61
2018-11-21T03:31:50.717Z,94.57
2018-11-21T03:32:50.887Z,94.41
2018-11-21T03:33:57.675Z,94.97
2018-11-21T03:34:51.093Z,94.97
2018-11-21T03:35:51.154Z,94.76
2018-11-21T03:36:51.208Z,94.85
2018-11-21T03:37:51.516Z,95.14
2018-11-21T03:38:51.904Z,94.92
2018-11-21T03:39:51.950Z,94.79
2018-11-21T03:40:52.182Z,95.03
2018-11-21T03:41:52.267Z,94.74
2018-11-21T03:42:52.342Z,94.91
2018-11-21T03:43:52.408Z,95.01
2018-11-21T03:44:52.464Z,95.46
2018-11-21T03:45:52.578Z,95.43
2018-11-21T03:46:52.665Z,95.81
2018-11-21T03:47:52.749Z,96.46
2018-11-21T03:48:52.811Z,96.54
2018-11-21T03:49:52.867Z,97.01
2018-11-21T03:50:52.960Z,96.99
2018-11-21T03:51:53.037Z,97.23
2018-11-21T03:52:53.139Z,97.66
2018-11-21T03:53:53.223Z,97.75
2018-11-21T03:54:53.336Z,97.97
2018-11-21T03:55:53.422Z,98.32
2018-11-21T03:56:53.547Z,98.53
2018-11-21T03:57:53.610Z,98.81
2018-11-21T03:58:53.731Z,98.84
2018-11-21T03:59:53.812Z,98.92
2018-11-21T04:00:53.893Z,99.19
2018-11-21T04:01:53.903Z,98.85
2018-11-21T04:02:53.921Z,98.70
2018-11-21T04:03:53.929Z,98.70
2018-11-21T04:04:53.996Z,98.49
2018-11-21T04:05:54.301Z,98.43
2018-11-21T04:06:54.570Z,98.49
2018-11-21T04:07:54.892Z,98.47
2018-11-21T04:08:55.249Z,98.48
2018-11-21T04:09:55.630Z,98.31
2018-11-21T04:10:55.901Z,98.48
2018-11-21T04:11:56.302Z,98.34
2018-11-21T04:12:56.794Z,98.58
2018-11-21T04:13:57.072Z,98.38
2018-11-21T04:14:57.352Z,98.34
2018-11-21T04:15:57.647Z,98.13
2018-11-21T04:16:57.934Z,97.94
2018-11-21T04:17:58.214Z,97.85
2018-11-21T04:18:58.499Z,97.75
2018-11-21T04:19:58.749Z,97.61
2018-11-21T04:20:59.284Z,97.62
2018-11-21T04:21:59.218Z,97.63
2018-11-21T04:22:59.805Z,97.35
2018-11-21T04:23:59.824Z,97.31
2018-11-21T04:24:59.627Z,97.25
2018-11-21T04:26:00.046Z,97.50
2018-11-21T04:27:00.361Z,97.67
2018-11-21T04:28:00.636Z,97.93
2018-11-21T04:29:00.894Z,98.03
2018-11-21T04:30:01.218Z,98.33
2018-11-21T04:31:01.339Z,98.12
2018-11-21T04:33:01.806Z,98.36
2018-11-21T04:34:02.052Z,98.40
2018-11-21T04:35:01.997Z,98.32
2018-11-21T04:36:02.476Z,98.57
2018-11-21T04:37:02.350Z,98.62
2018-11-21T04:38:02.640Z,98.56
2018-11-21T04:39:03.018Z,98.74
2018-11-21T04:40:03.525Z,98.66
2018-11-21T04:41:03.570Z,98.93
2018-11-21T04:42:03.708Z,99.08
2018-11-21T04:43:03.843Z,99.38
2018-11-21T04:44:03.989Z,99.55
2018-11-21T04:45:04.191Z,99.46
2018-11-21T04:46:04.219Z,99.59
2018-11-21T04:47:04.503Z,99.59
2018-11-21T04:48:04.660Z,99.58
2018-11-21T04:49:04.823Z,99.96
2018-11-21T04:50:04.988Z,99.75
2018-11-21T04:51:05.210Z,99.88
2018-11-21T04:52:05.339Z,100.00
2018-11-21T04:53:05.478Z,99.77
2018-11-21T04:54:05.677Z,99.86
2018-11-21T04:55:05.816Z,99.80
2018-11-21T04:56:06.186Z,99.83
2018-11-21T04:57:06.312Z,99.93
2018-11-21T04:58:06.472Z,99.85
2018-11-21T04:59:06.550Z,99.79
2018-11-21T05:00:06.737Z,99.73
2018-11-21T05:01:06.899Z,99.56
2018-11-21T05:02:07.011Z,99.53
2018-11-21T05:03:07.168Z,99.61
2018-11-21T05:04:07.266Z,99.14
2018-11-21T05:05:07.373Z,99.13
2018-11-21T05:06:07.586Z,99.08
2018-11-21T05:07:07.699Z,99.08
2018-11-21T05:08:07.820Z,99.10
2018-11-21T05:09:07.913Z,98.91
2018-11-21T05:10:08.033Z,98.99
2018-11-21T05:11:08.154Z,98.89
2018-11-21T05:12:08.252Z,98.88
2018-11-21T05:13:08.356Z,98.89
2018-11-21T05:14:08.128Z,98.73
2018-11-21T05:15:08.735Z,98.71
2018-11-21T05:16:08.757Z,98.72
2018-11-21T05:17:08.697Z,98.69
2018-11-21T05:18:09.434Z,98.73
2018-11-21T05:19:09.632Z,98.74
2018-11-21T05:20:09.536Z,98.83
2018-11-21T05:21:09.870Z,98.78
2018-11-21T05:22:10.175Z,98.87
2018-11-21T05:23:10.462Z,98.86
2018-11-21T05:24:11.095Z,98.80
2018-11-21T05:25:10.907Z,98.65
2018-11-21T05:26:11.160Z,98.65
2018-11-21T05:27:11.453Z,98.77
2018-11-21T05:28:11.759Z,98.60
2018-11-21T05:29:12.111Z,98.48
2018-11-21T05:30:12.392Z,98.72
2018-11-21T05:31:12.889Z,98.51
2018-11-21T05:32:12.738Z,98.47
2018-11-21T05:33:13.023Z,98.56
2018-11-21T05:34:13.280Z,98.59
2018-11-21T05:35:13.665Z,98.61
2018-11-21T05:36:13.913Z,98.57
2018-11-21T05:37:14.207Z,98.61
2018-11-21T05:38:14.563Z,98.60
2018-11-21T05:39:14.852Z,98.68
2018-11-21T05:40:15.390Z,98.50
2018-11-21T05:42:15.185Z,98.62
2018-11-21T05:43:15.464Z,98.75
2018-11-21T05:44:15.747Z,98.83
2018-11-21T05:45:16.321Z,98.69
2018-11-21T05:46:16.116Z,98.59
2018-11-21T05:47:16.436Z,98.51
2018-11-21T05:48:16.731Z,98.44
2018-11-21T05:49:17.021Z,98.29
2018-11-21T05:50:17.646Z,98.16
2018-11-21T05:51:17.675Z,98.07
2018-11-21T05:52:17.442Z,98.00
2018-11-21T05:53:18.014Z,97.86
2018-11-21T05:54:17.873Z,97.75
2018-11-21T05:55:18.436Z,97.66
2018-11-21T05:56:18.585Z,97.61
2018-11-21T05:57:18.783Z,97.57
2018-11-21T05:58:19.005Z,97.53
2018-11-21T05:59:19.181Z,97.46
2018-11-21T06:00:19.327Z,97.40
2018-11-21T06:01:19.432Z,97.28
2018-11-21T06:02:19.688Z,97.21
2018-11-21T06:03:19.756Z,97.16
2018-11-21T06:04:19.936Z,97.12
2018-11-21T06:05:20.181Z,97.06
2018-11-21T06:06:20.319Z,96.99
2018-11-21T06:07:20.410Z,96.97
2018-11-21T06:08:20.561Z,96.85
2018-11-21T06:09:20.728Z,96.91
2018-11-21T06:10:20.854Z,96.80
2018-11-21T06:11:20.960Z,96.71
2018-11-21T06:12:21.102Z,96.64
2018-11-21T06:13:21.159Z,96.70
2018-11-21T06:14:21.251Z,96.54
2018-11-21T06:15:21.305Z,96.48
2018-11-21T06:16:21.379Z,96.56
2018-11-21T06:17:21.492Z,96.58
2018-11-21T06:18:21.507Z,96.54
2018-11-21T06:19:21.653Z,96.49
2018-11-21T06:20:21.720Z,96.49
2018-11-21T06:21:21.822Z,96.64
2018-11-21T06:22:21.923Z,96.72
2018-11-21T06:23:22.032Z,96.80
2018-11-21T06:24:22.166Z,96.75
2018-11-21T06:25:22.234Z,96.82
2018-11-21T06:26:22.321Z,96.79
2018-11-21T06:27:22.392Z,96.77
2018-11-21T06:28:22.465Z,96.85
2018-11-21T06:29:22.562Z,96.85
2018-11-21T06:30:25.378Z,96.91
2018-11-21T06:31:22.953Z,96.89
2018-11-21T06:32:23.025Z,96.77
2018-11-21T06:33:23.101Z,96.75
2018-11-21T06:34:23.178Z,96.69
2018-11-21T06:35:23.277Z,96.46
2018-11-21T06:36:23.418Z,96.39
2018-11-21T06:37:23.476Z,96.29
2018-11-21T06:38:23.671Z,96.23
2018-11-21T06:39:23.757Z,96.09
2018-11-21T06:40:23.835Z,95.75
2018-11-21T06:41:23.877Z,95.96
2018-11-21T06:42:23.890Z,95.93
2018-11-21T06:43:23.972Z,95.13
2018-11-21T06:44:24.065Z,95.23
2018-11-21T06:45:24.165Z,95.11
2018-11-21T06:46:24.661Z,95.21
2018-11-21T06:47:24.745Z,94.59
2018-11-21T06:48:24.478Z,94.92
2018-11-21T06:49:24.742Z,94.73
2018-11-21T06:50:25.025Z,94.73
2018-11-21T06:51:25.301Z,94.73
2018-11-21T06:52:25.762Z,94.62
2018-11-21T06:53:26.025Z,94.59
2018-11-21T06:54:26.427Z,94.53
2018-11-21T06:55:26.706Z,94.26
2018-11-21T06:56:26.968Z,94.26
2018-11-21T06:57:27.376Z,94.36
2018-11-21T06:58:27.651Z,94.08
2018-11-21T06:59:27.949Z,94.08
2018-11-21T07:00:28.235Z,94.04
2018-11-21T07:01:28.498Z,93.94
2018-11-21T07:02:29.004Z,93.95
2018-11-21T07:03:29.261Z,93.68
2018-11-21T07:04:29.531Z,92.94
2018-11-21T07:05:29.896Z,92.83
2018-11-21T07:06:30.213Z,92.95
2018-11-21T07:07:30.718Z,93.26
2018-11-21T07:08:30.710Z,93.04
2018-11-21T07:09:30.996Z,93.11
2018-11-21T07:10:31.267Z,92.72
2018-11-21T07:11:31.555Z,92.75
2018-11-21T07:12:32.010Z,92.57
2018-11-21T07:13:32.303Z,92.44
2018-11-21T07:14:32.588Z,91.76
2018-11-21T07:15:33.310Z,92.06
2018-11-21T07:16:33.390Z,92.33
2018-11-21T07:17:33.484Z,92.28
2018-11-21T07:18:33.701Z,92.25
2018-11-21T07:19:33.796Z,92.24
2018-11-21T07:20:33.922Z,92.21
2018-11-21T07:21:34.087Z,92.01
2018-11-21T07:22:34.204Z,91.87
2018-11-21T07:23:34.578Z,91.81
2018-11-21T07:24:34.752Z,91.77
2018-11-21T07:25:34.920Z,91.74
2018-11-21T07:26:35.090Z,91.57
2018-11-21T07:27:35.315Z,91.63
2018-11-21T07:28:35.451Z,91.44
2018-11-21T07:29:35.667Z,91.42
2018-11-21T07:30:35.794Z,91.53
2018-11-21T07:31:35.890Z,91.48
2018-11-21T07:32:36.041Z,91.29
2018-11-21T07:33:36.124Z,91.35
2018-11-21T07:34:36.226Z,91.36
2018-11-21T07:35:36.328Z,91.30
2018-11-21T07:36:36.373Z,91.28
2018-11-21T07:37:36.436Z,91.36
2018-11-21T07:38:36.654Z,91.33
2018-11-21T07:39:36.742Z,91.31
2018-11-21T07:40:36.876Z,91.07
2018-11-21T07:41:37.005Z,91.17
2018-11-21T07:42:37.131Z,91.12
2018-11-21T07:43:37.236Z,91.09
2018-11-21T07:44:37.323Z,90.96
2018-11-21T07:45:37.426Z,91.00
2018-11-21T07:46:37.549Z,91.01
2018-11-21T07:47:37.655Z,90.88
2018-11-21T07:48:37.659Z,90.93
2018-11-21T07:49:37.748Z,90.74
2018-11-21T07:50:37.817Z,90.72
2018-11-21T07:51:37.920Z,90.71
2018-11-21T07:52:37.983Z,90.53
2018-11-21T07:53:38.285Z,90.42
2018-11-21T07:54:38.383Z,90.42
2018-11-21T07:55:38.719Z,90.44
2018-11-21T07:56:38.887Z,90.51
2018-11-21T07:57:39.042Z,90.41
2018-11-21T07:58:39.253Z,90.27
2018-11-21T07:59:39.637Z,90.15
2018-11-21T08:00:39.732Z,89.94
2018-11-21T08:01:40.183Z,89.98
2018-11-21T08:02:40.221Z,90.03
2018-11-21T08:03:40.708Z,89.95
2018-11-21T08:04:40.890Z,89.97
2018-11-21T08:05:44.270Z,89.70
2018-11-21T08:06:41.305Z,89.75
2018-11-21T08:07:41.585Z,89.74
2018-11-21T08:08:41.712Z,89.42
2018-11-21T08:09:42.353Z,89.48
2018-11-21T08:10:42.255Z,89.53
2018-11-21T08:11:42.582Z,89.45
2018-11-21T08:12:42.844Z,89.40
2018-11-21T08:13:43.256Z,89.31
2018-11-21T08:14:43.710Z,89.13
2018-11-21T08:15:44.125Z,89.16
2018-11-21T08:16:44.567Z,88.85
2018-11-21T08:17:45.006Z,89.06
2018-11-21T08:18:45.013Z,88.75
2018-11-21T08:29:46.337Z,87.80
2018-11-21T08:30:46.863Z,87.97
2018-11-21T08:40:47.802Z,86.56
2018-11-21T08:41:48.331Z,86.55
2018-11-21T08:42:48.303Z,86.62
2018-11-21T08:43:48.298Z,86.70
2018-11-21T08:44:48.897Z,86.52
2018-11-21T08:45:49.007Z,86.77
2018-11-21T08:46:49.170Z,86.78
2018-11-21T08:47:49.399Z,86.72
2018-11-21T08:48:49.565Z,86.68
2018-11-21T08:49:49.707Z,86.22
2018-11-21T08:50:49.829Z,86.27
2018-11-21T08:51:50.083Z,86.21
2018-11-21T08:52:50.242Z,86.01
2018-11-21T08:53:50.414Z,86.26
2018-11-21T08:54:50.527Z,86.36
2018-11-21T08:55:50.643Z,85.99
2018-11-21T08:56:50.768Z,86.01
2018-11-21T08:57:50.873Z,85.73
2018-11-21T08:58:51.000Z,85.89
2018-11-21T08:59:51.025Z,85.86
2018-11-21T09:00:51.082Z,85.63
2018-11-21T09:01:51.139Z,85.70
2018-11-21T09:02:51.227Z,85.67
2018-11-21T09:03:51.424Z,85.66
2018-11-21T09:04:51.496Z,85.47
2018-11-21T09:05:51.619Z,85.51
2018-11-21T09:06:51.648Z,84.96
2018-11-21T09:07:51.734Z,85.20
2018-11-21T09:08:51.863Z,84.91
2018-11-21T09:09:51.973Z,84.70
2018-11-21T09:10:52.708Z,84.94
2018-11-21T09:11:52.143Z,84.89
2018-11-21T09:12:52.233Z,84.95
2018-11-21T09:14:52.345Z,84.62
2018-11-21T09:15:53.424Z,84.46
2018-11-21T09:16:52.461Z,84.31
2018-11-21T09:17:52.525Z,84.03
2018-11-21T09:18:52.583Z,84.21
2018-11-21T09:19:52.650Z,84.13
2018-11-21T09:20:52.711Z,84.14
2018-11-21T09:21:52.756Z,84.05
2018-11-21T09:22:52.822Z,83.71
2018-11-21T09:23:52.882Z,83.89
2018-11-21T09:24:52.966Z,83.85
2018-11-21T09:25:53.032Z,83.83
2018-11-21T09:26:53.110Z,83.66
2018-11-21T09:27:53.224Z,83.53
2018-11-21T09:28:53.314Z,83.45
2018-11-21T09:29:53.541Z,83.22
2018-11-21T09:30:53.615Z,83.07
2018-11-21T09:31:53.701Z,83.16
2018-11-21T09:32:53.804Z,83.29
2018-11-21T09:33:53.868Z,83.10
2018-11-21T09:34:53.877Z,83.57
2018-11-21T09:35:53.850Z,83.44
2018-11-21T09:36:54.163Z,83.41
2018-11-21T09:37:54.483Z,83.38
2018-11-21T09:38:54.745Z,83.51
2018-11-21T09:39:55.068Z,83.26
2018-11-21T09:40:55.331Z,83.05
2018-11-21T09:41:55.589Z,82.68
2018-11-21T09:42:55.872Z,82.76
2018-11-21T09:43:56.158Z,82.65
2018-11-21T09:44:56.430Z,82.40
2018-11-21T09:45:56.839Z,82.38
2018-11-21T09:46:57.110Z,82.03
2018-11-21T09:47:57.367Z,81.80
2018-11-21T09:48:57.629Z,82.10
2018-11-21T09:49:57.898Z,82.05
2018-11-21T09:50:58.288Z,81.78
2018-11-21T09:51:58.528Z,81.73
2018-11-21T09:52:58.796Z,81.62
2018-11-21T09:53:59.044Z,81.37
2018-11-21T09:54:59.538Z,81.35
2018-11-21T09:55:59.785Z,81.03
2018-11-21T09:57:00.134Z,80.95
2018-11-21T09:58:00.408Z,80.46
2018-11-21T09:59:00.680Z,80.76
2018-11-21T10:00:00.995Z,80.60
2018-11-21T10:01:01.450Z,80.36
2018-11-21T10:02:01.782Z,79.80
2018-11-21T10:03:01.948Z,79.79
2018-11-21T10:04:02.187Z,79.77
2018-11-21T10:05:02.556Z,79.40
2018-11-21T10:06:03.152Z,79.47
2018-11-21T10:07:03.520Z,78.94
2018-11-21T10:08:03.642Z,79.31
2018-11-21T10:09:03.869Z,78.92
2018-11-21T10:10:04.310Z,78.79
2018-11-21T10:11:04.429Z,78.77
2018-11-21T10:12:04.506Z,78.55
2018-11-21T10:13:04.588Z,78.16
2018-11-21T10:14:04.706Z,78.19
2018-11-21T10:16:04.812Z,78.08
2018-11-21T10:17:04.931Z,78.54
2018-11-21T10:18:05.025Z,78.45
2018-11-21T10:19:05.190Z,78.04
2018-11-21T10:20:05.323Z,77.98
2018-11-21T10:21:05.461Z,77.36
2018-11-21T10:22:05.673Z,77.78
2018-11-21T10:23:05.776Z,77.54
2018-11-21T10:24:05.906Z,77.14
2018-11-21T10:25:06.015Z,77.42
2018-11-21T10:26:06.102Z,77.45
2018-11-21T10:27:06.515Z,76.86
2018-11-21T10:28:06.600Z,76.77
2018-11-21T10:29:06.767Z,77.14
2018-11-21T10:30:06.943Z,77.53
2018-11-21T10:31:07.075Z,77.36
2018-11-21T10:32:07.150Z,77.00
2018-11-21T10:33:07.230Z,76.89
2018-11-21T10:34:07.349Z,77.05
2018-11-21T10:35:07.489Z,76.99
2018-11-21T10:36:07.563Z,76.80
2018-11-21T10:37:07.627Z,76.95
2018-11-21T10:38:07.645Z,76.90
2018-11-21T10:39:07.710Z,76.65
2018-11-21T10:40:08.025Z,76.47
2018-11-21T10:41:08.073Z,75.93
2018-11-21T10:42:08.205Z,76.27
2018-11-21T10:43:07.960Z,75.94
2018-11-21T10:44:08.900Z,76.41
2018-11-21T10:45:09.539Z,76.17
2018-11-21T10:46:09.327Z,76.54
2018-11-21T10:47:09.730Z,76.74
2018-11-21T10:48:09.974Z,76.32
2018-11-21T10:49:10.355Z,76.09
2018-11-21T10:50:10.780Z,76.17
2018-11-21T10:51:11.064Z,75.97
2018-11-21T10:53:11.528Z,75.99
2018-11-21T10:54:11.438Z,75.62
2018-11-21T10:55:11.746Z,75.71
2018-11-21T10:56:12.012Z,75.29
2018-11-21T10:57:12.331Z,75.19
2018-11-21T10:58:12.595Z,75.24
2018-11-21T10:59:12.891Z,74.75
2018-11-21T11:00:13.327Z,74.46
2018-11-21T11:01:13.270Z,74.56
2018-11-21T11:02:13.580Z,74.71
2018-11-21T11:03:14.079Z,74.47
2018-11-21T11:04:14.219Z,74.50
2018-11-21T11:05:14.741Z,74.33
2018-11-21T11:06:14.672Z,74.28
2018-11-21T11:07:14.825Z,74.36
2018-11-21T11:08:15.252Z,73.70
2018-11-21T11:09:15.652Z,73.72
2018-11-21T11:10:16.105Z,73.77
2018-11-21T11:11:16.007Z,74.09
2018-11-21T11:12:16.732Z,74.46
2018-11-21T11:13:16.741Z,74.71
2018-11-21T11:14:16.654Z,74.99
2018-11-21T11:15:16.800Z,75.03
2018-11-21T11:16:16.724Z,75.00
2018-11-21T11:17:17.072Z,75.04
2018-11-21T11:18:17.484Z,74.92
2018-11-21T11:19:17.968Z,74.87
2018-11-21T11:20:18.303Z,75.10
2018-11-21T11:21:18.992Z,75.17
2018-11-21T11:23:19.308Z,75.41
2018-11-21T11:24:19.613Z,75.71
2018-11-21T11:25:19.907Z,76.02
2018-11-21T11:26:20.370Z,75.98
2018-11-21T11:27:20.641Z,75.95
2018-11-21T11:28:20.888Z,75.96
2018-11-21T11:29:21.079Z,75.71
2018-11-21T11:30:21.139Z,75.52
2018-11-21T11:31:21.579Z,75.54
2018-11-21T11:32:21.849Z,75.47
2018-11-21T11:33:22.236Z,75.30
2018-11-21T11:34:22.273Z,75.27
2018-11-21T11:35:22.463Z,75.37
2018-11-21T11:36:22.838Z,75.52
2018-11-21T11:37:23.079Z,75.45
2018-11-21T11:38:23.096Z,75.54
2018-11-21T11:39:23.425Z,75.63
2018-11-21T11:40:23.698Z,75.63
2018-11-21T11:41:23.877Z,75.71
2018-11-21T11:42:24.005Z,75.57
2018-11-21T11:43:23.981Z,75.68
2018-11-21T11:44:24.072Z,75.89
2018-11-21T11:45:24.134Z,76.17
2018-11-21T11:46:24.055Z,76.01
2018-11-21T11:47:24.129Z,75.99
2018-11-21T11:48:24.517Z,75.87
2018-11-21T11:49:24.929Z,75.75
2018-11-21T11:50:25.505Z,75.67
2018-11-21T11:51:25.693Z,75.54
2018-11-21T11:52:25.851Z,75.33
2018-11-21T11:53:26.186Z,75.22
2018-11-21T11:54:26.636Z,75.33
2018-11-21T11:55:27.026Z,75.01
2018-11-21T11:56:27.431Z,74.81
2018-11-21T11:57:27.777Z,74.79
2018-11-21T11:58:28.155Z,74.25
2018-11-21T11:59:28.465Z,73.87
2018-11-21T12:00:28.535Z,74.05
2018-11-21T12:01:28.652Z,73.76
2018-11-21T12:02:29.078Z,73.56
2018-11-21T12:03:29.498Z,73.31
2018-11-21T12:04:30.098Z,73.43
2018-11-21T12:05:30.002Z,73.18
2018-11-21T12:06:30.336Z,73.29
2018-11-21T12:07:30.510Z,72.74
2018-11-21T12:08:30.930Z,73.10
2018-11-21T12:09:31.397Z,72.28
2018-11-21T12:10:31.802Z,72.25
2018-11-21T12:11:31.911Z,71.47
2018-11-21T12:12:32.882Z,72.24
2018-11-21T12:13:32.522Z,71.78
2018-11-21T12:14:33.054Z,71.82
2018-11-21T12:15:33.658Z,71.77
2018-11-21T12:16:33.872Z,72.09
2018-11-21T12:17:34.063Z,71.85
2018-11-21T12:18:34.432Z,71.57
2018-11-21T12:19:34.741Z,71.79
2018-11-21T12:20:35.047Z,71.85
2018-11-21T12:22:35.423Z,71.81
2018-11-21T12:23:35.671Z,72.13
2018-11-21T12:24:36.032Z,72.25
2018-11-21T12:25:36.244Z,72.31
2018-11-21T12:26:36.465Z,72.40
2018-11-21T12:27:36.822Z,72.30
2018-11-21T12:28:36.909Z,72.22
2018-11-21T12:29:37.141Z,72.50
2018-11-21T12:30:37.014Z,72.75
2018-11-21T12:31:37.821Z,72.68
2018-11-21T12:32:39.312Z,72.83
2018-11-21T12:33:38.065Z,73.10
2018-11-21T12:35:38.290Z,73.06
2018-11-21T12:36:38.316Z,73.30
2018-11-21T12:37:38.473Z,73.53
2018-11-21T12:38:38.854Z,73.58
2018-11-21T12:39:38.850Z,73.43
2018-11-21T12:40:38.998Z,73.29
2018-11-21T12:41:39.010Z,73.14
2018-11-21T12:42:39.160Z,73.11
2018-11-21T12:43:39.155Z,72.97
2018-11-21T12:44:39.583Z,72.92
2018-11-21T12:45:39.762Z,72.62
2018-11-21T12:46:39.733Z,72.71
2018-11-21T12:47:39.816Z,72.60
2018-11-21T12:48:40.243Z,72.45
2018-11-21T12:49:40.693Z,72.91
2018-11-21T12:50:40.764Z,72.99
2018-11-21T12:51:40.793Z,73.25
2018-11-21T12:52:41.106Z,73.29
2018-11-21T12:53:41.367Z,73.65
2018-11-21T12:54:41.485Z,73.68
2018-11-21T12:55:41.520Z,73.42
2018-11-21T12:56:41.715Z,73.09
2018-11-21T12:57:42.113Z,73.36
2018-11-21T12:58:42.436Z,73.24
2018-11-21T12:59:42.908Z,73.60
2018-11-21T13:00:43.372Z,73.63
2018-11-21T13:01:43.592Z,73.50
2018-11-21T13:02:43.762Z,73.51
2018-11-21T13:03:43.926Z,73.39
2018-11-21T13:04:44.404Z,73.61
2018-11-21T13:05:44.606Z,73.75
2018-11-21T13:06:45.018Z,73.60
2018-11-21T13:07:45.512Z,73.58
2018-11-21T13:08:45.547Z,73.77
2018-11-21T13:09:45.961Z,73.68
2018-11-21T13:10:46.160Z,73.54
2018-11-21T13:11:46.526Z,73.59
2018-11-21T13:12:46.988Z,73.49
2018-11-21T13:13:46.864Z,73.38
2018-11-21T13:14:47.020Z,73.47
2018-11-21T13:15:47.618Z,73.44
2018-11-21T13:16:47.584Z,73.65
2018-11-21T13:17:47.911Z,73.63
2018-11-21T13:18:48.085Z,73.78
2018-11-21T13:19:48.168Z,73.62
2018-11-21T13:20:48.571Z,73.55
2018-11-21T13:21:48.871Z,73.53
2018-11-21T13:23:48.921Z,73.39
2018-11-21T13:24:49.431Z,73.23
2018-11-21T13:25:49.928Z,73.17
2018-11-21T13:26:50.215Z,73.17